Time;durP1;ratioP1;P1;durP2;ratioP2;P2;SDS_P1;SDS_P2;PMS_P1;PMS_P2;Temp;Humidity;BMP_temperature;BMP_pressure;BME280_temperature;BME280_humidity;BME280_pressure;Samples;Min_cycle;Max_cycle;Signal;HPM_P1;HPM_P2
2022/06/10 00:01:11;;;;;;;2.25;2.03;;;15.20;99.90;;;;;;5097385;28;20218;-77
2022/06/10 00:03:37;;;;;;;3.58;2.20;;;15.10;99.90;;;;;;5096699;28;20648;-76
2022/06/10 00:06:06;;;;;;;2.42;2.20;;;15.10;99.90;;;;;;5095656;28;20203;-76
2022/06/10 00:08:35;;;;;;;3.15;1.85;;;14.90;99.90;;;;;;5099108;28;20178;-76
2022/06/10 00:11:04;;;;;;;3.65;2.25;;;14.80;99.90;;;;;;5091991;28;20214;-76
2022/06/10 00:13:33;;;;;;;2.95;2.08;;;14.70;99.90;;;;;;5104427;28;20204;-77
2022/06/10 00:16:00;;;;;;;4.32;2.47;;;14.60;99.90;;;;;;5087279;28;20185;-76
2022/06/10 00:18:28;;;;;;;2.88;2.10;;;14.50;99.90;;;;;;5100412;28;20181;-76
2022/06/10 00:20:54;;;;;;;2.08;1.90;;;14.40;99.90;;;;;;5095378;28;20248;-76
2022/06/10 00:23:20;;;;;;;3.22;2.10;;;14.40;99.90;;;;;;5105363;28;20178;-76
2022/06/10 00:25:46;;;;;;;2.78;1.98;;;14.40;99.90;;;;;;5102753;28;20235;-76
2022/06/10 00:28:12;;;;;;;2.50;2.40;;;14.30;99.90;;;;;;5097300;28;20281;-77
2022/06/10 00:30:39;;;;;;;2.08;1.95;;;14.30;99.90;;;;;;5091999;28;20767;-75
2022/06/10 00:33:05;;;;;;;2.60;2.40;;;14.20;99.90;;;;;;5113378;28;20170;-76
2022/06/10 00:35:31;;;;;;;1.98;1.88;;;14.20;99.90;;;;;;5089990;28;20202;-77
2022/06/10 00:37:57;;;;;;;2.67;2.30;;;14.20;99.90;;;;;;5096723;28;20697;-76
2022/06/10 00:40:26;;;;;;;3.65;2.25;;;14.10;99.90;;;;;;5097235;28;20713;-76
2022/06/10 00:42:56;;;;;;;3.70;2.22;;;14.10;99.90;;;;;;5108392;28;20580;-76
2022/06/10 00:45:49;;;;;;;2.13;2.03;;;14.00;99.90;;;;;;5100074;28;20695;-77
2022/06/10 00:48:19;;;;;;;2.33;2.15;;;14.10;99.90;;;;;;5100377;28;20648;-76
2022/06/10 00:50:47;;;;;;;2.13;2.03;;;14.10;99.90;;;;;;5094152;28;20233;-76
2022/06/10 00:53:19;;;;;;;2.38;2.22;;;14.10;99.90;;;;;;5102013;28;20621;-75
2022/06/10 00:55:46;;;;;;;3.35;2.47;;;14.10;99.90;;;;;;5099231;28;20554;-76
2022/06/10 00:58:31;;;;;;;2.50;2.30;;;14.10;99.90;;;;;;5105125;28;20178;-75
2022/06/10 01:00:56;;;;;;;3.53;2.80;;;14.00;99.90;;;;;;5102318;28;20191;-76
2022/06/10 01:03:22;;;;;;;3.67;2.35;;;13.90;99.90;;;;;;5101610;28;20708;-76
2022/06/10 01:05:48;;;;;;;3.05;2.17;;;13.90;99.90;;;;;;5101026;28;20230;-75
2022/06/10 01:08:17;;;;;;;2.80;2.60;;;13.90;99.90;;;;;;5098393;28;20210;-76
2022/06/10 01:11:19;;;;;;;2.60;2.40;;;13.80;99.90;;;;;;5090987;28;20220;-75
2022/06/10 01:14:11;;;;;;;4.38;2.60;;;13.80;99.90;;;;;;5097612;28;20182;-76
2022/06/10 01:16:52;;;;;;;3.22;2.65;;;13.80;99.90;;;;;;5073942;28;20205;-76
2022/06/10 01:19:44;;;;;;;2.53;2.35;;;13.90;99.90;;;;;;5097649;28;20260;-76
2022/06/10 01:22:13;;;;;;;2.90;2.70;;;13.90;99.90;;;;;;5089777;28;20202;-76
2022/06/10 01:25:16;;;;;;;2.53;2.33;;;13.90;99.90;;;;;;5095956;28;20174;-77
2022/06/10 01:28:02;;;;;;;4.28;2.45;;;13.90;99.90;;;;;;5090305;28;20539;-77
2022/06/10 01:31:16;;;;;;;2.90;2.70;;;13.80;99.90;;;;;;5095525;28;20629;-77
2022/06/10 01:34:10;;;;;;;2.25;2.15;;;13.90;99.90;;;;;;5076449;28;20197;-77
2022/06/10 01:36:51;;;;;;;3.95;3.50;;;13.80;99.90;;;;;;5098582;28;20171;-76
2022/06/10 01:39:36;;;;;;;4.05;2.72;;;13.80;99.90;;;;;;5093516;28;20205;-77
2022/06/10 01:42:45;;;;;;;3.45;2.78;;;13.80;99.90;;;;;;5098839;28;20202;-76
2022/06/10 01:45:19;;;;;;;2.60;2.40;;;13.70;99.90;;;;;;5092643;28;20321;-77
2022/06/10 01:48:14;;;;;;;3.28;3.08;;;13.80;99.90;;;;;;5088303;28;20183;-79
2022/06/10 01:50:56;;;;;;;2.53;2.33;;;13.70;99.90;;;;;;5091716;28;20222;-77
2022/06/10 01:53:24;;;;;;;2.55;2.45;;;13.70;99.90;;;;;;5092623;28;20182;-77
2022/06/10 01:56:05;;;;;;;3.10;2.75;;;13.70;99.90;;;;;;5096173;28;20227;-76
2022/06/10 01:58:57;;;;;;;3.42;2.85;;;13.70;99.90;;;;;;5091873;28;20170;-76
2022/06/10 02:01:32;;;;;;;2.80;2.60;;;13.70;99.90;;;;;;5093818;28;20289;-76
2022/06/10 02:04:22;;;;;;;4.30;3.55;;;13.80;99.90;;;;;;5092474;28;20241;-75
2022/06/10 02:07:00;;;;;;;3.20;3.00;;;13.80;99.90;;;;;;5086666;28;20179;-76
2022/06/10 02:09:35;;;;;;;3.05;2.90;;;13.80;99.90;;;;;;5094815;28;20174;-79
2022/06/10 02:12:10;;;;;;;3.28;2.95;;;13.70;99.90;;;;;;5103113;28;20205;-82
2022/06/10 02:14:40;;;;;;;2.80;2.55;;;13.70;99.90;;;;;;5083104;28;20178;-75
2022/06/10 02:17:09;;;;;;;2.72;2.42;;;13.60;99.90;;;;;;5091197;28;20181;-78
2022/06/10 02:19:40;;;;;;;2.95;2.72;;;13.50;99.90;;;;;;5089316;28;20232;-75
2022/06/10 02:22:14;;;;;;;2.45;2.35;;;13.60;99.90;;;;;;5091540;28;20282;-77
2022/06/10 02:24:53;;;;;;;2.72;2.40;;;13.70;99.90;;;;;;5097834;28;20174;-77
2022/06/10 02:27:23;;;;;;;3.15;2.95;;;13.70;99.90;;;;;;5093488;28;20181;-77
2022/06/10 02:30:12;;;;;;;3.03;2.78;;;13.70;99.90;;;;;;5085837;28;20183;-76
2022/06/10 02:32:40;;;;;;;3.03;2.83;;;13.80;99.90;;;;;;5095233;28;20174;-76
2022/06/10 02:35:08;;;;;;;3.15;2.95;;;13.80;99.90;;;;;;5092204;28;20521;-76
2022/06/10 02:38:12;;;;;;;3.00;2.90;;;13.70;99.90;;;;;;5091745;28;20182;-76
2022/06/10 02:40:48;;;;;;;3.00;2.67;;;13.70;99.90;;;;;;5094615;28;20288;-76
2022/06/10 02:43:38;;;;;;;2.92;2.70;;;13.70;99.90;;;;;;5102716;28;20264;-76
2022/06/10 02:46:13;;;;;;;3.03;2.80;;;13.70;99.90;;;;;;5093569;28;20182;-76
2022/06/10 02:49:16;;;;;;;3.05;2.83;;;13.60;99.90;;;;;;5097537;28;20185;-76
2022/06/10 02:51:42;;;;;;;4.57;3.00;;;13.50;99.90;;;;;;5033487;28;20216;-76
2022/06/10 02:54:33;;;;;;;3.38;3.08;;;13.40;99.90;;;;;;5083314;28;20190;-76
2022/06/10 02:57:16;;;;;;;3.03;2.72;;;13.40;99.90;;;;;;5085390;28;20547;-76
2022/06/10 03:02:56;;;;;;;3.00;2.80;;;13.40;99.90;;;;;;5091558;28;20251;-76
2022/06/10 03:05:40;;;;;;;2.85;2.75;;;13.40;99.90;;;;;;5080575;28;20194;-75
2022/06/10 03:08:38;;;;;;;2.75;2.63;;;13.50;99.90;;;;;;5093990;28;20194;-75
2022/06/10 03:11:12;;;;;;;3.00;2.78;;;13.60;99.90;;;;;;5096510;28;20220;-75
2022/06/10 03:14:01;;;;;;;3.05;2.83;;;13.70;99.90;;;;;;5097646;28;20843;-75
2022/06/10 03:16:57;;;;;;;3.13;2.92;;;13.70;99.90;;;;;;5096130;28;20178;-76
2022/06/10 03:19:44;;;;;;;3.63;2.95;;;13.80;99.90;;;;;;5091460;28;20179;-75
2022/06/10 03:22:14;;;;;;;3.35;2.95;;;13.90;99.90;;;;;;5103954;28;20717;-78
2022/06/10 03:25:17;;;;;;;2.95;2.58;;;13.90;99.90;;;;;;5095954;27;20175;-76
2022/06/10 03:28:18;;;;;;;5.93;3.17;;;13.90;99.90;;;;;;5099045;28;20666;-76
2022/06/10 03:30:54;;;;;;;3.40;3.10;;;14.00;99.90;;;;;;5089923;28;20243;-76
2022/06/10 03:33:25;;;;;;;3.40;3.10;;;14.00;99.90;;;;;;5103063;28;20268;-76
2022/06/10 03:36:01;;;;;;;3.65;2.95;;;13.90;99.90;;;;;;5102300;28;20204;-76
2022/06/10 03:38:30;;;;;;;3.03;2.83;;;14.00;99.90;;;;;;5105344;28;20170;-76
2022/06/10 03:40:59;;;;;;;3.35;3.15;;;14.10;99.90;;;;;;5100274;28;20233;-76
2022/06/10 03:43:25;;;;;;;4.00;2.85;;;14.10;99.90;;;;;;5093727;28;20289;-76
2022/06/10 03:46:04;;;;;;;3.33;2.70;;;14.10;99.90;;;;;;5100273;28;20182;-76
2022/06/10 03:48:34;;;;;;;4.90;3.30;;;14.20;99.90;;;;;;5106163;27;20230;-76
2022/06/10 03:51:00;;;;;;;3.30;3.00;;;14.20;99.90;;;;;;5094424;28;20203;-77
2022/06/10 03:53:26;;;;;;;3.20;3.00;;;14.20;99.90;;;;;;5094718;28;20203;-76
2022/06/10 03:55:52;;;;;;;3.58;3.25;;;14.20;99.90;;;;;;5098794;28;20229;-76
2022/06/10 03:58:18;;;;;;;4.22;3.00;;;14.20;99.90;;;;;;5106597;28;20174;-76
2022/06/10 04:00:44;;;;;;;3.72;3.42;;;14.40;99.90;;;;;;5097613;28;20197;-76
2022/06/10 04:03:10;;;;;;;2.97;2.83;;;14.40;99.90;;;;;;5098872;28;20176;-76
2022/06/10 04:05:37;;;;;;;3.17;3.03;;;14.40;99.90;;;;;;5108805;28;20627;-77
2022/06/10 04:08:03;;;;;;;4.43;2.90;;;14.50;99.90;;;;;;5088792;28;20316;-76
2022/06/10 04:10:30;;;;;;;3.42;3.13;;;14.60;99.90;;;;;;5090411;28;20259;-76
2022/06/10 04:12:57;;;;;;;4.00;3.10;;;14.70;99.90;;;;;;5091181;28;20174;-77
2022/06/10 04:15:27;;;;;;;4.25;3.05;;;14.80;99.90;;;;;;5079939;28;20178;-76
2022/06/10 04:17:54;;;;;;;2.85;2.65;;;14.80;99.90;;;;;;5084685;28;20324;-76
2022/06/10 04:20:27;;;;;;;3.85;2.90;;;14.90;99.90;;;;;;5084595;28;20190;-76
2022/06/10 04:22:52;;;;;;;3.33;2.97;;;14.90;99.90;;;;;;5081917;28;20188;-76
2022/06/10 04:25:19;;;;;;;3.60;2.95;;;14.90;99.90;;;;;;5088634;28;20187;-77
2022/06/10 04:27:44;;;;;;;3.47;3.28;;;15.10;99.90;;;;;;5094883;28;20192;-77
2022/06/10 04:30:34;;;;;;;3.05;2.85;;;15.10;99.90;;;;;;5084510;28;20685;-76
2022/06/10 04:33:01;;;;;;;3.00;2.80;;;15.20;99.90;;;;;;5100515;28;20285;-76
2022/06/10 04:35:27;;;;;;;4.05;3.15;;;15.30;99.90;;;;;;5092313;28;20240;-77
2022/06/10 04:37:54;;;;;;;3.05;2.85;;;15.40;99.90;;;;;;5088235;28;20182;-76
2022/06/10 04:40:24;;;;;;;5.13;2.90;;;15.50;99.90;;;;;;5084264;28;20206;-77
2022/06/10 04:42:50;;;;;;;3.80;3.00;;;15.60;99.90;;;;;;5093686;28;20186;-76
2022/06/10 04:45:19;;;;;;;4.00;2.90;;;15.60;99.90;;;;;;5089908;28;20209;-77
2022/06/10 04:47:44;;;;;;;2.83;2.60;;;15.70;99.90;;;;;;5092038;28;20231;-76
2022/06/10 04:50:14;;;;;;;2.80;2.60;;;15.80;99.90;;;;;;5095267;28;20203;-76
2022/06/10 04:52:40;;;;;;;2.97;2.78;;;16.00;99.90;;;;;;5097022;28;20578;-77
2022/06/10 04:55:07;;;;;;;2.97;2.78;;;16.10;99.90;;;;;;5084785;28;20657;-76
2022/06/10 04:57:33;;;;;;;3.20;3.00;;;16.20;99.90;;;;;;5093801;28;20552;-76
2022/06/10 04:59:59;;;;;;;3.13;2.72;;;16.20;99.90;;;;;;5093166;28;20706;-75
2022/06/10 05:02:24;;;;;;;2.70;2.50;;;16.30;99.90;;;;;;5098142;28;20202;-76
2022/06/10 05:04:50;;;;;;;3.40;3.10;;;16.30;99.90;;;;;;5103896;28;20181;-76
2022/06/10 05:07:16;;;;;;;2.92;2.72;;;16.30;99.90;;;;;;5087578;28;20179;-76
2022/06/10 05:09:41;;;;;;;5.70;3.28;;;16.40;99.90;;;;;;5090828;28;20258;-77
2022/06/10 05:12:08;;;;;;;3.60;3.30;;;16.30;99.90;;;;;;5082093;28;20275;-76
2022/06/10 05:14:34;;;;;;;3.25;3.00;;;16.40;99.90;;;;;;5106961;27;20197;-76
2022/06/10 05:17:00;;;;;;;2.80;2.63;;;16.20;99.90;;;;;;5099940;28;21077;-76
2022/06/10 05:19:26;;;;;;;3.08;2.88;;;16.30;99.90;;;;;;5095229;28;20194;-76
2022/06/10 05:21:52;;;;;;;3.15;2.85;;;16.50;99.90;;;;;;5095618;28;20211;-76
2022/06/10 05:24:17;;;;;;;3.78;2.75;;;16.60;99.90;;;;;;5080164;28;20191;-77
2022/06/10 05:26:43;;;;;;;3.45;3.15;;;16.60;99.90;;;;;;5090653;28;20687;-77
2022/06/10 05:29:09;;;;;;;3.70;3.38;;;16.50;99.90;;;;;;5089008;28;20194;-77
2022/06/10 05:31:34;;;;;;;3.33;3.03;;;16.40;99.90;;;;;;5090045;28;20213;-78
2022/06/10 05:36:44;;;;;;;3.47;3.00;;;16.20;99.90;;;;;;5088450;28;20189;-77
2022/06/10 05:39:10;;;;;;;3.83;3.45;;;16.10;99.90;;;;;;5086373;28;20171;-78
2022/06/10 05:44:36;;;;;;;3.88;3.10;;;15.90;99.90;;;;;;5091806;28;20182;-78
2022/06/10 05:47:05;;;;;;;3.63;3.10;;;15.90;99.90;;;;;;5084100;28;20178;-78
2022/06/10 05:49:31;;;;;;;4.03;3.30;;;15.90;99.90;;;;;;5080248;28;20658;-77
2022/06/10 05:51:57;;;;;;;3.58;3.28;;;15.80;99.90;;;;;;5085325;28;20239;-78
2022/06/10 05:54:28;;;;;;;4.65;3.45;;;15.80;99.90;;;;;;5090808;28;20218;-78
2022/06/10 05:56:54;;;;;;;4.65;3.38;;;15.80;99.90;;;;;;5092938;28;20180;-79
2022/06/10 05:59:19;;;;;;;3.25;3.05;;;15.80;99.90;;;;;;5090183;28;20178;-79
2022/06/10 06:01:45;;;;;;;3.80;3.50;;;15.80;99.90;;;;;;5098366;28;20206;-80
2022/06/10 06:04:11;;;;;;;3.25;2.95;;;15.90;99.90;;;;;;5090666;28;20262;-78
2022/06/10 06:06:37;;;;;;;3.42;3.03;;;16.00;99.90;;;;;;5092968;28;20217;-78
2022/06/10 06:09:04;;;;;;;3.05;2.85;;;16.10;99.90;;;;;;5096557;28;20372;-78
2022/06/10 06:11:29;;;;;;;5.40;3.20;;;16.20;99.90;;;;;;5102017;28;20207;-78
2022/06/10 06:13:57;;;;;;;3.67;3.33;;;16.30;99.90;;;;;;5090192;28;20185;-78
2022/06/10 06:16:26;;;;;;;4.20;3.10;;;16.40;99.90;;;;;;5103428;28;20178;-79
2022/06/10 06:18:52;;;;;;;2.88;2.65;;;16.40;99.90;;;;;;5097432;28;20189;-78
2022/06/10 06:21:18;;;;;;;3.08;2.88;;;16.50;99.90;;;;;;5090969;28;20289;-77
2022/06/10 06:23:44;;;;;;;2.97;2.78;;;16.60;99.90;;;;;;5097131;28;20229;-77
2022/06/10 06:26:15;;;;;;;5.15;2.88;;;16.70;99.90;;;;;;5096714;28;20206;-77
2022/06/10 06:28:42;;;;;;;3.60;3.25;;;16.70;99.90;;;;;;5090824;28;20186;-78
2022/06/10 06:31:08;;;;;;;4.45;2.75;;;16.70;99.90;;;;;;5089901;28;20202;-77
2022/06/10 06:33:33;;;;;;;3.90;2.95;;;16.70;99.90;;;;;;5088752;28;20219;-77
2022/06/10 06:35:59;;;;;;;3.95;3.65;;;16.80;99.90;;;;;;5094514;28;20175;-78
2022/06/10 06:38:26;;;;;;;3.65;2.80;;;16.80;99.90;;;;;;5089137;28;20520;-78
2022/06/10 06:40:52;;;;;;;3.47;3.03;;;16.80;99.90;;;;;;5082984;28;20802;-77
2022/06/10 06:43:18;;;;;;;2.90;2.70;;;16.90;99.90;;;;;;5089936;28;20641;-77
2022/06/10 06:45:44;;;;;;;2.95;2.60;;;16.90;99.90;;;;;;5093636;28;20185;-78
2022/06/10 06:48:10;;;;;;;2.65;2.55;;;16.90;99.90;;;;;;5085912;28;20194;-77
2022/06/10 06:50:41;;;;;;;4.25;2.67;;;16.90;99.90;;;;;;5089241;28;20275;-79
2022/06/10 06:53:07;;;;;;;5.13;2.90;;;17.10;99.90;;;;;;5088728;28;20691;-79
2022/06/10 06:55:38;;;;;;;3.58;3.05;;;17.20;99.90;;;;;;5093439;28;20182;-78
2022/06/10 06:58:05;;;;;;;3.13;2.83;;;17.30;99.90;;;;;;5089282;28;20258;-76
2022/06/10 07:00:31;;;;;;;2.95;2.65;;;17.50;99.90;;;;;;5088472;28;20186;-77
2022/06/10 07:02:56;;;;;;;3.55;2.85;;;17.80;99.90;;;;;;5094215;28;20174;-77
2022/06/10 07:05:22;;;;;;;3.13;2.92;;;18.10;99.90;;;;;;5089923;28;20190;-76
2022/06/10 07:07:48;;;;;;;3.58;3.08;;;18.40;99.90;;;;;;5087629;28;20697;-75
2022/06/10 07:10:16;;;;;;;3.38;3.05;;;18.60;99.90;;;;;;5084519;28;20203;-75
2022/06/10 07:12:42;;;;;;;3.15;2.63;;;18.60;99.90;;;;;;5073452;28;20248;-74
2022/06/10 07:15:08;;;;;;;2.50;2.30;;;18.90;99.90;;;;;;5088760;28;20573;-75
2022/06/10 07:17:33;;;;;;;2.53;2.35;;;19.00;99.90;;;;;;5092658;28;20719;-75
2022/06/10 07:20:00;;;;;;;2.90;2.33;;;19.10;99.90;;;;;;5090996;28;20261;-75
2022/06/10 07:22:26;;;;;;;2.60;2.50;;;19.10;99.90;;;;;;5085542;28;20558;-76
2022/06/10 07:24:55;;;;;;;2.50;2.30;;;19.10;99.90;;;;;;5090624;28;20221;-75
2022/06/10 07:27:21;;;;;;;2.70;2.50;;;18.90;99.90;;;;;;5096205;28;20185;-75
2022/06/10 07:29:47;;;;;;;2.58;2.42;;;19.00;99.90;;;;;;5091669;28;20197;-76
2022/06/10 07:32:13;;;;;;;4.10;2.30;;;19.00;99.90;;;;;;5091016;28;20685;-75
2022/06/10 07:34:39;;;;;;;2.35;2.15;;;18.90;99.90;;;;;;5096057;28;20190;-74
2022/06/10 07:37:05;;;;;;;2.47;2.28;;;18.90;99.90;;;;;;5090115;28;20645;-75
2022/06/10 07:39:34;;;;;;;4.10;2.13;;;18.90;99.90;;;;;;5091051;28;20596;-75
2022/06/10 07:42:02;;;;;;;2.22;2.03;;;18.80;99.90;;;;;;5080856;28;20667;-75
2022/06/10 07:44:30;;;;;;;3.35;1.98;;;18.90;99.90;;;;;;5086849;28;20190;-75
2022/06/10 07:46:58;;;;;;;3.55;2.40;;;19.00;99.90;;;;;;5085717;28;20229;-75
2022/06/10 07:49:24;;;;;;;3.33;2.10;;;19.10;99.90;;;;;;5085193;28;20179;-75
2022/06/10 07:51:50;;;;;;;2.42;2.22;;;19.20;99.90;;;;;;5085951;28;20614;-75
2022/06/10 07:54:16;;;;;;;3.65;2.08;;;19.20;99.90;;;;;;5083397;28;20185;-76
2022/06/10 07:56:42;;;;;;;2.25;2.00;;;19.40;99.90;;;;;;5092841;28;20552;-75
2022/06/10 07:59:08;;;;;;;3.08;2.22;;;19.40;99.90;;;;;;5087691;28;20174;-75
2022/06/10 08:01:34;;;;;;;2.25;2.15;;;19.40;99.90;;;;;;5090278;28;20576;-75
2022/06/10 08:04:00;;;;;;;1.65;1.55;;;19.40;99.90;;;;;;5089412;28;20185;-75
2022/06/10 08:06:29;;;;;;;2.05;1.95;;;19.50;99.90;;;;;;5096703;28;20659;-75
2022/06/10 08:08:55;;;;;;;2.70;1.92;;;19.60;99.90;;;;;;5099536;28;20214;-75
2022/06/10 08:11:21;;;;;;;2.15;2.00;;;19.70;99.90;;;;;;5099901;28;20197;-74
2022/06/10 08:13:47;;;;;;;2.10;2.00;;;19.80;99.90;;;;;;5091573;28;20182;-73
2022/06/10 08:16:14;;;;;;;5.15;2.10;;;20.00;99.90;;;;;;5093325;28;20228;-74
2022/06/10 08:18:40;;;;;;;5.03;1.98;;;19.80;99.90;;;;;;5088870;28;20237;-75
2022/06/10 08:23:51;;;;;;;1.77;1.67;;;20.00;99.90;;;;;;5096912;28;20206;-73
2022/06/10 08:26:18;;;;;;;2.17;1.98;;;20.30;99.90;;;;;;5093419;28;20190;-74
2022/06/10 08:28:46;;;;;;;1.80;1.70;;;20.70;99.90;;;;;;5093012;28;20202;-74
2022/06/10 08:31:12;;;;;;;2.03;1.90;;;20.90;99.90;;;;;;5102358;28;20213;-74
2022/06/10 08:33:38;;;;;;;2.42;2.22;;;21.10;99.90;;;;;;5103630;28;20183;-77
2022/06/10 08:36:06;;;;;;;2.85;1.85;;;21.40;99.90;;;;;;5099554;28;20170;-77
2022/06/10 08:38:32;;;;;;;2.38;1.80;;;21.70;99.90;;;;;;5091178;28;20180;-74
2022/06/10 08:41:05;;;;;;;1.98;1.83;;;21.90;99.90;;;;;;5091260;28;20195;-74
2022/06/10 08:43:47;;;;;;;2.05;1.95;;;22.10;99.90;;;;;;5092382;28;20554;-74
2022/06/10 08:46:15;;;;;;;3.67;1.73;;;22.20;99.90;;;;;;5090380;28;20181;-76
2022/06/10 08:49:09;;;;;;;4.50;1.85;;;22.20;99.90;;;;;;5092188;28;20187;-74
2022/06/10 08:51:49;;;;;;;1.50;1.40;;;22.30;99.90;;;;;;5093782;28;20574;-75
2022/06/10 08:54:25;;;;;;;1.55;1.23;;;22.40;99.90;;;;;;5089504;28;20181;-76
2022/06/10 08:56:55;;;;;;;1.60;1.45;;;22.20;99.90;;;;;;5086695;28;20209;-75
2022/06/10 08:59:36;;;;;;;1.52;1.50;;;22.00;99.90;;;;;;5094930;28;20685;-74
2022/06/10 09:02:09;;;;;;;3.13;1.63;;;22.00;99.90;;;;;;5098096;28;20209;-74
2022/06/10 09:05:00;;;;;;;1.85;1.40;;;22.00;99.90;;;;;;5089457;28;20240;-75
2022/06/10 09:07:33;;;;;;;1.52;1.40;;;22.10;99.90;;;;;;5087608;28;20243;-75
2022/06/10 09:10:00;;;;;;;2.03;1.40;;;22.50;99.90;;;;;;5100839;28;20182;-75
2022/06/10 09:12:56;;;;;;;2.45;1.40;;;22.80;99.90;;;;;;5086083;28;20228;-75
2022/06/10 09:15:24;;;;;;;1.45;1.38;;;23.00;99.90;;;;;;5088911;28;20232;-75
2022/06/10 09:17:57;;;;;;;2.42;1.40;;;23.50;99.90;;;;;;5087977;28;20182;-75
2022/06/10 09:20:48;;;;;;;1.60;1.50;;;23.90;99.90;;;;;;5090959;28;20182;-74
2022/06/10 09:23:38;;;;;;;1.67;1.50;;;23.80;99.90;;;;;;5092174;28;20190;-75
2022/06/10 09:26:10;;;;;;;1.60;1.50;;;24.00;99.90;;;;;;5083944;28;20280;-75
2022/06/10 09:28:37;;;;;;;1.85;1.75;;;24.20;99.60;;;;;;5081982;28;20198;-75
2022/06/10 09:31:22;;;;;;;0.93;0.93;;;24.70;96.70;;;;;;5084264;28;20711;-75
2022/06/10 09:34:03;;;;;;;1.88;1.35;;;25.00;94.50;;;;;;5081616;28;20182;-75
2022/06/10 09:36:44;;;;;;;1.08;1.00;;;25.50;93.00;;;;;;5087218;28;20646;-75
2022/06/10 09:42:20;;;;;;;1.85;1.73;;;29.30;88.70;;;;;;5084054;28;20213;-75
2022/06/10 09:45:05;;;;;;;1.33;1.23;;;31.50;72.40;;;;;;5090355;28;20182;-73
2022/06/10 09:47:34;;;;;;;1.20;1.10;;;33.50;62.10;;;;;;5092146;28;20183;-73
2022/06/10 09:50:18;;;;;;;1.20;1.10;;;35.00;54.50;;;;;;5095651;28;20187;-73
2022/06/10 09:53:03;;;;;;;1.25;1.20;;;35.00;53.30;;;;;;5092316;28;20664;-73
2022/06/10 09:55:57;;;;;;;1.30;1.20;;;33.30;54.50;;;;;;5081503;28;20186;-73
2022/06/10 09:58:48;;;;;;;1.10;1.10;;;31.30;57.30;;;;;;5095540;28;20174;-73
2022/06/10 10:01:26;;;;;;;1.77;1.25;;;31.50;57.10;;;;;;5087485;28;20238;-73
2022/06/10 10:04:02;;;;;;;0.80;0.70;;;32.40;57.10;;;;;;5086732;28;20190;-76
2022/06/10 10:06:53;;;;;;;1.17;1.00;;;32.10;55.20;;;;;;5091044;28;20178;-73
2022/06/10 10:09:46;;;;;;;2.13;1.00;;;31.80;54.30;;;;;;5088204;28;20217;-74
2022/06/10 10:12:33;;;;;;;1.77;1.30;;;30.90;56.00;;;;;;5093891;28;20696;-74
2022/06/10 10:15:14;;;;;;;1.60;1.42;;;29.70;57.50;;;;;;5104191;28;20206;-74
2022/06/10 10:18:00;;;;;;;1.17;1.15;;;28.90;59.90;;;;;;5092469;28;20185;-74
2022/06/10 10:20:45;;;;;;;1.35;1.27;;;28.70;59.10;;;;;;5099365;28;20182;-74
2022/06/10 10:23:34;;;;;;;1.40;1.10;;;28.60;60.50;;;;;;5086979;28;20186;-74
2022/06/10 10:26:03;;;;;;;1.92;1.13;;;29.40;61.80;;;;;;5086941;28;20190;-75
2022/06/10 10:28:33;;;;;;;1.33;1.23;;;32.20;61.40;;;;;;5085755;28;20198;-74
2022/06/10 10:31:20;;;;;;;1.33;1.23;;;33.70;53.10;;;;;;5081887;28;20661;-74
2022/06/10 10:33:47;;;;;;;1.10;1.10;;;33.30;54.10;;;;;;5093123;28;20175;-74
2022/06/10 10:36:22;;;;;;;1.63;1.20;;;32.10;52.30;;;;;;5105513;28;20170;-73
2022/06/10 10:38:49;;;;;;;1.40;1.30;;;31.40;54.40;;;;;;5091940;28;20177;-74
2022/06/10 10:41:28;;;;;;;1.10;1.08;;;30.80;54.00;;;;;;5088026;28;20197;-74
2022/06/10 10:44:26;;;;;;;1.50;1.08;;;30.10;57.50;;;;;;5092137;28;20182;-73
2022/06/10 10:47:11;;;;;;;1.15;1.05;;;29.60;57.70;;;;;;5064611;28;20202;-74
2022/06/10 10:49:59;;;;;;;1.20;1.20;;;29.50;58.20;;;;;;5096784;28;20730;-74
2022/06/10 10:52:28;;;;;;;1.60;1.50;;;28.80;60.00;;;;;;5092785;28;20652;-74
2022/06/10 10:54:59;;;;;;;1.10;1.10;;;28.70;63.20;;;;;;5093870;28;20182;-74
2022/06/10 10:57:31;;;;;;;1.45;1.35;;;29.20;60.00;;;;;;5098613;28;20181;-74
2022/06/10 11:00:09;;;;;;;2.20;1.23;;;29.20;60.70;;;;;;5093287;28;20186;-74
2022/06/10 11:02:47;;;;;;;1.30;1.17;;;29.40;60.70;;;;;;5089284;28;20210;-74
2022/06/10 11:05:16;;;;;;;1.27;1.17;;;29.50;60.00;;;;;;5092274;28;20173;-74
2022/06/10 11:07:43;;;;;;;1.52;1.27;;;29.60;59.20;;;;;;5088399;28;20177;-75
2022/06/10 11:10:21;;;;;;;1.50;1.40;;;29.60;58.90;;;;;;5088459;28;20642;-76
2022/06/10 11:12:48;;;;;;;1.17;1.15;;;29.50;57.90;;;;;;5086304;28;20527;-75
2022/06/10 11:15:18;;;;;;;1.27;1.15;;;29.70;58.90;;;;;;5085303;28;20202;-75
2022/06/10 11:17:47;;;;;;;2.22;1.08;;;29.40;57.30;;;;;;5082790;28;20187;-75
2022/06/10 11:20:33;;;;;;;1.55;1.25;;;29.30;59.20;;;;;;5083597;28;20197;-75
2022/06/10 11:23:25;;;;;;;4.07;1.48;;;29.10;58.70;;;;;;5083708;28;20175;-75
2022/06/10 11:26:03;;;;;;;2.08;1.10;;;28.70;60.20;;;;;;5078531;28;20175;-75
2022/06/10 11:28:37;;;;;;;1.10;1.10;;;28.70;61.60;;;;;;5079307;28;20239;-74
2022/06/10 11:31:03;;;;;;;1.52;1.42;;;28.60;62.40;;;;;;5084176;28;20209;-75
2022/06/10 11:33:42;;;;;;;1.40;1.30;;;29.50;59.60;;;;;;5085842;28;20190;-74
2022/06/10 11:36:14;;;;;;;1.67;1.15;;;32.20;54.50;;;;;;5089006;28;20174;-75
2022/06/10 11:38:51;;;;;;;2.78;1.30;;;34.10;51.30;;;;;;5086769;28;20244;-75
2022/06/10 11:41:31;;;;;;;1.40;1.30;;;35.70;50.20;;;;;;5084108;28;20201;-75
2022/06/10 11:44:21;;;;;;;1.70;0.95;;;35.70;48.60;;;;;;5085405;28;20174;-75
2022/06/10 11:46:56;;;;;;;3.40;1.40;;;36.90;46.00;;;;;;5084027;28;20230;-76
2022/06/10 11:49:27;;;;;;;1.17;1.08;;;37.50;44.90;;;;;;5079700;28;20181;-76
2022/06/10 11:51:58;;;;;;;1.23;1.00;;;38.20;43.50;;;;;;5088189;28;20476;-76
2022/06/10 11:54:51;;;;;;;1.23;1.15;;;38.40;43.90;;;;;;5084091;28;20548;-73
2022/06/10 12:00:36;;;;;;;1.00;1.00;;;39.30;42.20;;;;;;5089413;28;20197;-73
2022/06/10 12:03:18;;;;;;;1.98;0.80;;;39.90;40.70;;;;;;5085365;28;20182;-73
2022/06/10 12:06:13;;;;;;;2.17;1.33;;;39.90;39.10;;;;;;5092930;28;20238;-72
2022/06/10 12:09:00;;;;;;;0.90;0.90;;;39.50;38.90;;;;;;5089377;28;20186;-72
2022/06/10 12:11:35;;;;;;;1.40;1.10;;;38.90;40.30;;;;;;5092414;28;20214;-73
2022/06/10 12:14:27;;;;;;;2.50;1.23;;;37.60;41.10;;;;;;5091864;28;20180;-73
2022/06/10 12:17:01;;;;;;;2.78;0.82;;;36.50;43.60;;;;;;5091464;28;20539;-73
2022/06/10 12:19:35;;;;;;;1.83;1.20;;;36.80;42.90;;;;;;5087663;28;20177;-73
2022/06/10 12:22:01;;;;;;;0.98;0.80;;;36.40;45.90;;;;;;5081126;28;20697;-73
2022/06/10 12:24:27;;;;;;;1.30;1.02;;;36.80;44.10;;;;;;5081327;28;20182;-72
2022/06/10 12:26:59;;;;;;;1.13;0.90;;;37.60;42.50;;;;;;5074535;28;20201;-73
2022/06/10 12:29:45;;;;;;;0.85;0.85;;;37.50;44.90;;;;;;5072972;28;20428;-73
2022/06/10 12:32:19;;;;;;;2.22;0.82;;;39.50;39.70;;;;;;5078922;28;20210;-73
2022/06/10 12:34:50;;;;;;;1.70;1.30;;;39.50;40.00;;;;;;5084908;28;20867;-73
2022/06/10 12:37:40;;;;;;;1.40;1.30;;;37.70;41.70;;;;;;5083938;28;20178;-73
2022/06/10 12:40:20;;;;;;;1.08;0.85;;;37.20;44.30;;;;;;5085905;28;20196;-73
2022/06/10 12:42:54;;;;;;;2.17;1.20;;;38.90;43.30;;;;;;5089517;28;20182;-73
2022/06/10 12:45:41;;;;;;;2.60;1.20;;;41.00;41.80;;;;;;5089209;28;20180;-73
2022/06/10 12:48:28;;;;;;;1.27;1.10;;;43.00;38.90;;;;;;5087490;28;20184;-73
2022/06/10 12:51:11;;;;;;;0.93;0.93;;;45.10;36.00;;;;;;5084494;28;20710;-72
2022/06/10 12:53:59;;;;;;;1.35;1.05;;;47.10;33.60;;;;;;5084899;28;20202;-73
2022/06/10 12:56:31;;;;;;;0.98;0.93;;;48.20;32.30;;;;;;5077786;28;20184;-74
2022/06/10 12:59:09;;;;;;;1.38;0.88;;;50.30;30.50;;;;;;5082786;28;20645;-74
2022/06/10 13:01:35;;;;;;;1.38;0.80;;;50.50;29.70;;;;;;5088522;28;20210;-74
2022/06/10 13:04:10;;;;;;;1.08;0.77;;;49.90;30.00;;;;;;5081839;28;20538;-74
2022/06/10 13:06:44;;;;;;;0.55;0.55;;;51.00;29.40;;;;;;5084647;28;20220;-73
2022/06/10 13:09:10;;;;;;;0.80;0.80;;;53.00;28.20;;;;;;5080767;28;20220;-74
2022/06/10 13:11:38;;;;;;;0.70;0.70;;;51.90;28.80;;;;;;5082720;28;20233;-73
2022/06/10 13:14:12;;;;;;;1.85;0.60;;;52.20;28.40;;;;;;5078767;28;20417;-73
2022/06/10 13:16:40;;;;;;;0.75;0.75;;;52.30;27.90;;;;;;5093710;28;20173;-74
2022/06/10 13:19:34;;;;;;;0.80;0.80;;;53.20;27.60;;;;;;5080279;28;20182;-73
2022/06/10 13:22:20;;;;;;;0.70;0.70;;;52.40;27.50;;;;;;5091171;28;20196;-73
2022/06/10 13:24:54;;;;;;;1.10;1.00;;;53.60;27.80;;;;;;5090526;28;20181;-73
2022/06/10 13:27:20;;;;;;;3.70;1.02;;;55.60;26.50;;;;;;5102346;28;20206;-73
2022/06/10 13:29:51;;;;;;;0.68;0.68;;;55.60;27.30;;;;;;5089556;28;20181;-74
2022/06/10 13:32:16;;;;;;;0.70;0.70;;;55.20;27.10;;;;;;5086334;28;20760;-75
2022/06/10 13:34:42;;;;;;;2.47;0.80;;;53.90;26.60;;;;;;5092193;28;20186;-74
2022/06/10 13:37:18;;;;;;;1.55;0.77;;;49.80;28.10;;;;;;5093448;28;20202;-73
2022/06/10 13:39:46;;;;;;;0.70;0.70;;;49.00;29.30;;;;;;5087747;28;20283;-73